sensor_id;sensor_type;location;lat;lon;timestamp;pressure;altitude;pressure_sealevel;temperature;humidity
72798;BME280;61084;55.816;37.036;2023-02-18T00:00:39;99536.06;;;-7.98;60.53
72798;BME280;61084;55.816;37.036;2023-02-18T00:03:05;99540.28;;;-8.00;60.52
72798;BME280;61084;55.816;37.036;2023-02-18T00:05:30;99532.69;;;-7.98;60.11
72798;BME280;61084;55.816;37.036;2023-02-18T00:07:56;99537.78;;;-7.98;60.66
72798;BME280;61084;55.816;37.036;2023-02-18T00:10:22;99530.16;;;-7.97;60.44
72798;BME280;61084;55.816;37.036;2023-02-18T00:12:48;99532.63;;;-8.00;60.87
72798;BME280;61084;55.816;37.036;2023-02-18T00:15:13;99524.13;;;-8.00;61.07
72798;BME280;61084;55.816;37.036;2023-02-18T00:17:39;99524.09;;;-8.02;60.34
72798;BME280;61084;55.816;37.036;2023-02-18T00:20:05;99512.22;;;-8.03;60.85
72798;BME280;61084;55.816;37.036;2023-02-18T00:22:32;99519.00;;;-8.02;60.76
72798;BME280;61084;55.816;37.036;2023-02-18T00:24:58;99512.22;;;-8.03;60.44
72798;BME280;61084;55.816;37.036;2023-02-18T00:27:23;99499.44;;;-8.04;60.86
72798;BME280;61084;55.816;37.036;2023-02-18T00:29:49;99497.72;;;-8.05;60.67
72798;BME280;61084;55.816;37.036;2023-02-18T00:32:15;99496.06;;;-8.05;61.02
72798;BME280;61084;55.816;37.036;2023-02-18T00:34:40;99501.16;;;-8.05;60.94
72798;BME280;61084;55.816;37.036;2023-02-18T00:37:06;99490.09;;;-8.05;60.82
72798;BME280;61084;55.816;37.036;2023-02-18T00:39:32;99482.44;;;-8.07;61.06
72798;BME280;61084;55.816;37.036;2023-02-18T00:41:57;99477.25;;;-8.10;61.12
72798;BME280;61084;55.816;37.036;2023-02-18T00:44:24;99473.94;;;-8.07;61.15
72798;BME280;61084;55.816;37.036;2023-02-18T00:46:50;99465.44;;;-8.06;61.21
72798;BME280;61084;55.816;37.036;2023-02-18T00:49:16;99462.88;;;-8.08;61.29
72798;BME280;61084;55.816;37.036;2023-02-18T00:51:42;99455.28;;;-8.06;61.47
72798;BME280;61084;55.816;37.036;2023-02-18T00:54:08;99456.97;;;-8.07;61.41
72798;BME280;61084;55.816;37.036;2023-02-18T00:56:34;99454.47;;;-8.04;61.49
72798;BME280;61084;55.816;37.036;2023-02-18T00:59:00;99443.41;;;-8.06;61.32
72798;BME280;61084;55.816;37.036;2023-02-18T01:01:26;99442.63;;;-8.03;61.58
72798;BME280;61084;55.816;37.036;2023-02-18T01:03:52;99434.13;;;-8.04;61.54
72798;BME280;61084;55.816;37.036;2023-02-18T01:06:18;99435.84;;;-8.03;61.33
72798;BME280;61084;55.816;37.036;2023-02-18T01:08:47;99435.00;;;-8.02;61.47
72798;BME280;61084;55.816;37.036;2023-02-18T01:11:13;99426.50;;;-8.02;61.83
72798;BME280;61084;55.816;37.036;2023-02-18T01:13:40;99422.28;;;-8.02;61.41
72798;BME280;61084;55.816;37.036;2023-02-18T01:16:06;99418.03;;;-8.01;61.25
72798;BME280;61084;55.816;37.036;2023-02-18T01:18:32;99416.38;;;-8.01;61.71
72798;BME280;61084;55.816;37.036;2023-02-18T01:20:58;99414.66;;;-8.00;61.38
72798;BME280;61084;55.816;37.036;2023-02-18T01:23:24;99406.19;;;-8.01;61.22
72798;BME280;61084;55.816;37.036;2023-02-18T01:25:50;99400.22;;;-8.03;61.18
72798;BME280;61084;55.816;37.036;2023-02-18T01:28:16;99396.78;;;-8.03;61.08
72798;BME280;61084;55.816;37.036;2023-02-18T01:30:43;99394.25;;;-8.03;61.66
72798;BME280;61084;55.816;37.036;2023-02-18T01:33:09;99379.75;;;-8.07;61.48
72798;BME280;61084;55.816;37.036;2023-02-18T01:35:39;99380.53;;;-8.10;61.47
72798;BME280;61084;55.816;37.036;2023-02-18T01:38:05;99375.44;;;-8.10;61.45
72798;BME280;61084;55.816;37.036;2023-02-18T01:40:31;99368.63;;;-8.11;60.95
72798;BME280;61084;55.816;37.036;2023-02-18T01:42:58;99366.06;;;-8.12;61.09
72798;BME280;61084;55.816;37.036;2023-02-18T01:50:32;99361.84;;;-8.12;61.33
72798;BME280;61084;55.816;37.036;2023-02-18T01:53:00;99350.81;;;-8.11;61.57
72798;BME280;61084;55.816;37.036;2023-02-18T01:55:30;99344.78;;;-8.16;61.74
72798;BME280;61084;55.816;37.036;2023-02-18T01:57:56;99336.28;;;-8.16;61.24
72798;BME280;61084;55.816;37.036;2023-02-18T02:00:22;99344.72;;;-8.19;61.70
72798;BME280;61084;55.816;37.036;2023-02-18T02:02:50;99329.53;;;-8.16;61.53
72798;BME280;61084;55.816;37.036;2023-02-18T02:05:17;99322.81;;;-8.11;61.48
72798;BME280;61084;55.816;37.036;2023-02-18T02:07:44;99323.75;;;-8.07;62.09
72798;BME280;61084;55.816;37.036;2023-02-18T02:10:12;99327.25;;;-8.01;62.29
72798;BME280;61084;55.816;37.036;2023-02-18T02:13:04;99322.19;;;-7.99;62.60
72798;BME280;61084;55.816;37.036;2023-02-18T02:16:05;99308.75;;;-7.92;62.53
72798;BME280;61084;55.816;37.036;2023-02-18T02:18:56;99309.66;;;-7.87;62.94
72798;BME280;61084;55.816;37.036;2023-02-18T02:24:35;99300.41;;;-7.85;63.24
72798;BME280;61084;55.816;37.036;2023-02-18T02:27:20;99297.88;;;-7.84;63.35
72798;BME280;61084;55.816;37.036;2023-02-18T02:33:49;99288.59;;;-7.80;63.34
72798;BME280;61084;55.816;37.036;2023-02-18T02:44:28;99273.38;;;-7.76;63.99
72798;BME280;61084;55.816;37.036;2023-02-18T02:47:32;99269.25;;;-7.69;63.74
72798;BME280;61084;55.816;37.036;2023-02-18T02:50:16;99271.88;;;-7.66;63.76
72798;BME280;61084;55.816;37.036;2023-02-18T02:52:49;99264.31;;;-7.61;63.64
72798;BME280;61084;55.816;37.036;2023-02-18T02:55:19;99266.00;;;-7.60;64.60
72798;BME280;61084;55.816;37.036;2023-02-18T02:57:51;99269.41;;;-7.61;63.80
72798;BME280;61084;55.816;37.036;2023-02-18T03:00:44;99258.41;;;-7.59;64.78
72798;BME280;61084;55.816;37.036;2023-02-18T03:09:16;99239.06;;;-7.46;64.10
72798;BME280;61084;55.816;37.036;2023-02-18T03:12:31;99228.91;;;-7.43;64.01
72798;BME280;61084;55.816;37.036;2023-02-18T03:14:57;99228.09;;;-7.42;64.05
72798;BME280;61084;55.816;37.036;2023-02-18T03:17:30;99216.22;;;-7.42;63.74
72798;BME280;61084;55.816;37.036;2023-02-18T03:20:22;99214.50;;;-7.41;63.68
72798;BME280;61084;55.816;37.036;2023-02-18T03:22:51;99217.00;;;-7.44;64.09
72798;BME280;61084;55.816;37.036;2023-02-18T03:25:20;99210.25;;;-7.42;63.88
72798;BME280;61084;55.816;37.036;2023-02-18T03:27:54;99210.31;;;-7.36;64.04
72798;BME280;61084;55.816;37.036;2023-02-18T03:30:27;99195.09;;;-7.33;63.87
72798;BME280;61084;55.816;37.036;2023-02-18T03:33:00;99195.06;;;-7.35;64.15
72798;BME280;61084;55.816;37.036;2023-02-18T03:35:28;99187.47;;;-7.32;63.86
72798;BME280;61084;55.816;37.036;2023-02-18T03:38:02;99180.69;;;-7.28;63.56
72798;BME280;61084;55.816;37.036;2023-02-18T03:40:31;99183.31;;;-7.25;63.55
72798;BME280;61084;55.816;37.036;2023-02-18T03:42:59;99187.59;;;-7.24;64.06
72798;BME280;61084;55.816;37.036;2023-02-18T03:45:26;99183.25;;;-7.28;63.77
72798;BME280;61084;55.816;37.036;2023-02-18T03:47:52;99179.88;;;-7.29;63.78
72798;BME280;61084;55.816;37.036;2023-02-18T03:50:18;99183.31;;;-7.24;64.14
72798;BME280;61084;55.816;37.036;2023-02-18T03:52:44;99173.97;;;-7.25;63.67
72798;BME280;61084;55.816;37.036;2023-02-18T03:55:10;99168.91;;;-7.22;64.10
72798;BME280;61084;55.816;37.036;2023-02-18T03:57:36;99166.41;;;-7.17;63.81
72798;BME280;61084;55.816;37.036;2023-02-18T04:00:04;99158.75;;;-7.20;63.88
72798;BME280;61084;55.816;37.036;2023-02-18T04:02:39;99150.28;;;-7.16;64.20
72798;BME280;61084;55.816;37.036;2023-02-18T04:05:05;99157.06;;;-7.17;64.51
72798;BME280;61084;55.816;37.036;2023-02-18T04:07:32;99155.38;;;-7.18;64.43
72798;BME280;61084;55.816;37.036;2023-02-18T04:09:58;99149.44;;;-7.17;64.10
72798;BME280;61084;55.816;37.036;2023-02-18T04:12:23;99152.91;;;-7.10;64.34
72798;BME280;61084;55.816;37.036;2023-02-18T04:14:49;99137.69;;;-7.04;64.48
72798;BME280;61084;55.816;37.036;2023-02-18T04:17:18;99139.41;;;-7.03;64.11
72798;BME280;61084;55.816;37.036;2023-02-18T04:19:44;99142.88;;;-6.98;64.12
72798;BME280;61084;55.816;37.036;2023-02-18T04:22:09;99134.31;;;-7.00;63.96
72798;BME280;61084;55.816;37.036;2023-02-18T04:24:35;99132.56;;;-7.06;64.40
72798;BME280;61084;55.816;37.036;2023-02-18T04:27:01;99125.81;;;-7.02;64.44
72798;BME280;61084;55.816;37.036;2023-02-18T04:29:27;99129.16;;;-7.08;64.19
72798;BME280;61084;55.816;37.036;2023-02-18T04:31:53;99121.56;;;-7.05;64.51
72798;BME280;61084;55.816;37.036;2023-02-18T04:34:19;99116.47;;;-7.05;64.68
72798;BME280;61084;55.816;37.036;2023-02-18T04:36:45;99124.13;;;-7.00;64.73
72798;BME280;61084;55.816;37.036;2023-02-18T04:39:11;99119.88;;;-7.00;64.30
72798;BME280;61084;55.816;37.036;2023-02-18T04:41:36;99120.75;;;-6.99;64.24
72798;BME280;61084;55.816;37.036;2023-02-18T04:44:02;99120.75;;;-7.01;64.66
72798;BME280;61084;55.816;37.036;2023-02-18T04:46:28;99116.56;;;-6.94;64.62
72798;BME280;61084;55.816;37.036;2023-02-18T04:48:54;99109.81;;;-6.91;64.29
72798;BME280;61084;55.816;37.036;2023-02-18T04:51:20;99103.88;;;-6.86;64.58
72798;BME280;61084;55.816;37.036;2023-02-18T04:53:46;99099.59;;;-6.89;64.73
72798;BME280;61084;55.816;37.036;2023-02-18T04:56:11;99099.66;;;-6.86;64.27
72798;BME280;61084;55.816;37.036;2023-02-18T04:58:37;99091.13;;;-6.86;64.77
72798;BME280;61084;55.816;37.036;2023-02-18T05:01:03;99090.22;;;-6.95;64.58
72798;BME280;61084;55.816;37.036;2023-02-18T05:03:30;99089.34;;;-6.97;64.41
72798;BME280;61084;55.816;37.036;2023-02-18T05:05:56;99076.53;;;-7.01;64.46
72798;BME280;61084;55.816;37.036;2023-02-18T05:08:22;99074.78;;;-7.05;64.17
72798;BME280;61084;55.816;37.036;2023-02-18T05:10:48;99074.78;;;-7.05;64.54
72798;BME280;61084;55.816;37.036;2023-02-18T05:13:14;99064.59;;;-7.05;64.58
72798;BME280;61084;55.816;37.036;2023-02-18T05:15:40;99055.13;;;-7.15;63.89
72798;BME280;61084;55.816;37.036;2023-02-18T05:18:06;99053.38;;;-7.19;63.94
72798;BME280;61084;55.816;37.036;2023-02-18T05:20:32;99059.38;;;-7.16;64.83
72798;BME280;61084;55.816;37.036;2023-02-18T05:22:58;99046.59;;;-7.17;64.26
72798;BME280;61084;55.816;37.036;2023-02-18T05:25:24;99051.75;;;-7.16;64.38
72798;BME280;61084;55.816;37.036;2023-02-18T05:27:50;99055.16;;;-7.12;64.48
72798;BME280;61084;55.816;37.036;2023-02-18T05:30:16;99043.28;;;-7.10;64.08
72798;BME280;61084;55.816;37.036;2023-02-18T05:32:41;99045.00;;;-7.09;64.55
72798;BME280;61084;55.816;37.036;2023-02-18T05:35:08;99038.19;;;-7.09;64.18
72798;BME280;61084;55.816;37.036;2023-02-18T05:37:33;99030.53;;;-7.09;64.58
72798;BME280;61084;55.816;37.036;2023-02-18T05:39:59;99026.25;;;-7.13;63.70
72798;BME280;61084;55.816;37.036;2023-02-18T05:42:25;99023.72;;;-7.13;63.80
72798;BME280;61084;55.816;37.036;2023-02-18T05:44:51;99026.31;;;-7.08;63.91
72798;BME280;61084;55.816;37.036;2023-02-18T05:47:17;99025.47;;;-7.07;63.77
72798;BME280;61084;55.816;37.036;2023-02-18T05:49:43;99010.16;;;-7.09;63.88
72798;BME280;61084;55.816;37.036;2023-02-18T05:52:09;99007.66;;;-7.06;64.00
72798;BME280;61084;55.816;37.036;2023-02-18T05:54:36;99011.13;;;-6.98;63.94
72798;BME280;61084;55.816;37.036;2023-02-18T05:57:02;99011.06;;;-7.05;63.98
72798;BME280;61084;55.816;37.036;2023-02-18T05:59:28;98999.13;;;-7.08;64.05
72798;BME280;61084;55.816;37.036;2023-02-18T06:01:54;98993.16;;;-7.08;63.71
72798;BME280;61084;55.816;37.036;2023-02-18T06:04:20;98993.25;;;-6.99;63.79
72798;BME280;61084;55.816;37.036;2023-02-18T06:06:46;98990.81;;;-6.90;64.00
72798;BME280;61084;55.816;37.036;2023-02-18T06:09:12;98989.16;;;-6.80;63.63
72798;BME280;61084;55.816;37.036;2023-02-18T06:11:38;98989.16;;;-6.82;63.75
72798;BME280;61084;55.816;37.036;2023-02-18T06:14:03;98986.66;;;-6.79;63.52
72798;BME280;61084;55.816;37.036;2023-02-18T06:16:30;98983.16;;;-6.88;63.36
72798;BME280;61084;55.816;37.036;2023-02-18T06:18:56;98988.25;;;-6.92;63.40
72798;BME280;61084;55.816;37.036;2023-02-18T06:21:22;98978.00;;;-6.93;63.61
72798;BME280;61084;55.816;37.036;2023-02-18T06:23:47;98973.78;;;-6.93;63.56
72798;BME280;61084;55.816;37.036;2023-02-18T06:26:13;98959.38;;;-6.84;63.45
72798;BME280;61084;55.816;37.036;2023-02-18T06:28:39;98958.53;;;-6.85;63.16
72798;BME280;61084;55.816;37.036;2023-02-18T06:31:05;98947.50;;;-6.82;63.25
72798;BME280;61084;55.816;37.036;2023-02-18T06:33:50;98952.59;;;-6.85;62.97
72798;BME280;61084;55.816;37.036;2023-02-18T06:36:16;98945.75;;;-6.86;63.29
72798;BME280;61084;55.816;37.036;2023-02-18T06:38:43;98947.53;;;-6.79;63.47
72798;BME280;61084;55.816;37.036;2023-02-18T06:41:11;98941.66;;;-6.71;63.52
72798;BME280;61084;55.816;37.036;2023-02-18T06:43:37;98937.41;;;-6.70;63.62
72798;BME280;61084;55.816;37.036;2023-02-18T06:46:03;98936.66;;;-6.57;63.66
72798;BME280;61084;55.816;37.036;2023-02-18T06:48:30;98935.03;;;-6.46;63.57
72798;BME280;61084;55.816;37.036;2023-02-18T06:50:56;98923.97;;;-6.47;63.54
72798;BME280;61084;55.816;37.036;2023-02-18T06:53:22;98910.38;;;-6.41;63.41
72798;BME280;61084;55.816;37.036;2023-02-18T06:55:48;98915.53;;;-6.35;63.16
72798;BME280;61084;55.816;37.036;2023-02-18T06:58:14;98915.53;;;-6.32;62.97
72798;BME280;61084;55.816;37.036;2023-02-18T07:00:40;98901.06;;;-6.36;63.03
72798;BME280;61084;55.816;37.036;2023-02-18T07:03:06;98898.53;;;-6.33;63.25
72798;BME280;61084;55.816;37.036;2023-02-18T07:05:32;98903.63;;;-6.30;63.36
72798;BME280;61084;55.816;37.036;2023-02-18T07:07:58;98894.28;;;-6.30;63.07
72798;BME280;61084;55.816;37.036;2023-02-18T07:10:24;98884.97;;;-6.22;63.14
72798;BME280;61084;55.816;37.036;2023-02-18T07:12:49;98873.94;;;-6.13;63.12
72798;BME280;61084;55.816;37.036;2023-02-18T07:15:16;98884.13;;;-6.13;63.09
72798;BME280;61084;55.816;37.036;2023-02-18T07:17:42;98873.94;;;-6.10;62.87
72798;BME280;61084;55.816;37.036;2023-02-18T07:20:08;98879.09;;;-6.04;63.00
72798;BME280;61084;55.816;37.036;2023-02-18T07:22:34;98865.50;;;-5.92;63.25
72798;BME280;61084;55.816;37.036;2023-02-18T07:25:00;98863.81;;;-5.83;62.85
72798;BME280;61084;55.816;37.036;2023-02-18T07:27:26;98864.69;;;-5.75;62.88
72798;BME280;61084;55.816;37.036;2023-02-18T07:29:52;98858.75;;;-5.60;62.95
72798;BME280;61084;55.816;37.036;2023-02-18T07:32:18;98862.16;;;-5.52;62.87
72798;BME280;61084;55.816;37.036;2023-02-18T07:34:44;98851.09;;;-5.45;62.74
72798;BME280;61084;55.816;37.036;2023-02-18T07:37:10;98847.72;;;-5.33;62.83
72798;BME280;61084;55.816;37.036;2023-02-18T07:39:43;98834.94;;;-5.27;62.67
72798;BME280;61084;55.816;37.036;2023-02-18T07:42:12;98833.22;;;-5.19;62.79
72798;BME280;61084;55.816;37.036;2023-02-18T07:44:39;98829.00;;;-5.22;62.50
72798;BME280;61084;55.816;37.036;2023-02-18T07:47:07;98821.31;;;-5.14;62.38
72798;BME280;61084;55.816;37.036;2023-02-18T07:49:33;98820.44;;;-5.19;62.24
72798;BME280;61084;55.816;37.036;2023-02-18T07:51:59;98813.63;;;-5.20;62.23
72798;BME280;61084;55.816;37.036;2023-02-18T07:54:25;98817.88;;;-5.15;62.27
72798;BME280;61084;55.816;37.036;2023-02-18T07:56:51;98815.31;;;-5.01;62.09
72798;BME280;61084;55.816;37.036;2023-02-18T07:59:17;98811.91;;;-4.84;62.14
72798;BME280;61084;55.816;37.036;2023-02-18T08:01:43;98809.31;;;-4.72;61.67
72798;BME280;61084;55.816;37.036;2023-02-18T08:04:09;98805.03;;;-4.64;61.96
72798;BME280;61084;55.816;37.036;2023-02-18T08:06:37;98800.78;;;-4.66;61.80
72798;BME280;61084;55.816;37.036;2023-02-18T08:09:04;98795.69;;;-4.77;61.83
72798;BME280;61084;55.816;37.036;2023-02-18T08:11:31;98795.69;;;-4.80;61.46
72798;BME280;61084;55.816;37.036;2023-02-18T08:13:56;98793.97;;;-4.82;61.32
72798;BME280;61084;55.816;37.036;2023-02-18T08:16:22;98788.00;;;-4.78;61.10
72798;BME280;61084;55.816;37.036;2023-02-18T08:18:49;98787.97;;;-4.74;61.71
72798;BME280;61084;55.816;37.036;2023-02-18T08:21:17;98781.13;;;-4.67;61.38
72798;BME280;61084;55.816;37.036;2023-02-18T08:23:44;98767.47;;;-4.59;61.77
72798;BME280;61084;55.816;37.036;2023-02-18T08:26:10;98775.97;;;-4.53;61.50
72798;BME280;61084;55.816;37.036;2023-02-18T08:28:42;98774.28;;;-4.48;61.80
72798;BME280;61084;55.816;37.036;2023-02-18T08:31:17;98769.97;;;-4.48;61.93
72798;BME280;61084;55.816;37.036;2023-02-18T08:33:44;98762.31;;;-4.46;61.76
72798;BME280;61084;55.816;37.036;2023-02-18T08:36:09;98760.56;;;-4.43;61.88
72798;BME280;61084;55.816;37.036;2023-02-18T08:38:35;98750.38;;;-4.50;61.59
72798;BME280;61084;55.816;37.036;2023-02-18T08:41:03;98747.78;;;-4.47;61.03
72798;BME280;61084;55.816;37.036;2023-02-18T08:43:29;98740.09;;;-4.44;61.54
72798;BME280;61084;55.816;37.036;2023-02-18T08:45:56;98732.34;;;-4.28;61.44
72798;BME280;61084;55.816;37.036;2023-02-18T08:48:23;98728.00;;;-4.15;61.21
72798;BME280;61084;55.816;37.036;2023-02-18T08:50:48;98721.97;;;-4.05;61.26
72798;BME280;61084;55.816;37.036;2023-02-18T08:53:15;98721.94;;;-4.01;61.18
72798;BME280;61084;55.816;37.036;2023-02-18T08:55:41;98712.56;;;-4.03;60.76
72798;BME280;61084;55.816;37.036;2023-02-18T08:58:07;98708.25;;;-4.00;60.88
72798;BME280;61084;55.816;37.036;2023-02-18T09:00:35;98709.06;;;-3.93;61.22
72798;BME280;61084;55.816;37.036;2023-02-18T09:03:01;98699.63;;;-3.87;60.53
72798;BME280;61084;55.816;37.036;2023-02-18T09:05:27;98689.34;;;-3.79;61.46
72798;BME280;61084;55.816;37.036;2023-02-18T09:07:53;98685.88;;;-3.75;61.21
72798;BME280;61084;55.816;37.036;2023-02-18T09:10:20;98683.25;;;-3.66;60.51
72798;BME280;61084;55.816;37.036;2023-02-18T09:12:45;98678.09;;;-3.64;60.94
72798;BME280;61084;55.816;37.036;2023-02-18T09:15:11;98677.16;;;-3.56;61.02
72798;BME280;61084;55.816;37.036;2023-02-18T09:17:37;98679.69;;;-3.51;60.47
72798;BME280;61084;55.816;37.036;2023-02-18T09:20:03;98661.69;;;-3.45;60.43
72798;BME280;61084;55.816;37.036;2023-02-18T09:22:29;98659.00;;;-3.35;61.16
72798;BME280;61084;55.816;37.036;2023-02-18T09:24:57;98648.75;;;-3.35;60.86
72798;BME280;61084;55.816;37.036;2023-02-18T09:27:23;98659.03;;;-3.36;60.51
72798;BME280;61084;55.816;37.036;2023-02-18T09:29:48;98641.09;;;-3.36;60.41
72798;BME280;61084;55.816;37.036;2023-02-18T09:32:15;98633.31;;;-3.30;60.11
72798;BME280;61084;55.816;37.036;2023-02-18T09:34:43;98634.09;;;-3.22;60.33
72798;BME280;61084;55.816;37.036;2023-02-18T09:37:10;98628.84;;;-3.13;59.51
72798;BME280;61084;55.816;37.036;2023-02-18T09:39:36;98633.88;;;-3.02;60.57
72798;BME280;61084;55.816;37.036;2023-02-18T09:42:04;98611.63;;;-3.00;60.68
72798;BME280;61084;55.816;37.036;2023-02-18T09:44:38;98603.06;;;-3.01;60.01
72798;BME280;61084;55.816;37.036;2023-02-18T09:49:53;98596.03;;;-2.85;60.08
72798;BME280;61084;55.816;37.036;2023-02-18T09:52:23;98585.72;;;-2.84;60.09
72798;BME280;61084;55.816;37.036;2023-02-18T09:54:50;98593.25;;;-2.72;60.31
72798;BME280;61084;55.816;37.036;2023-02-18T09:57:32;98589.75;;;-2.65;60.23
72798;BME280;61084;55.816;37.036;2023-02-18T10:00:10;98577.56;;;-2.52;59.89
72798;BME280;61084;55.816;37.036;2023-02-18T10:02:39;98572.38;;;-2.48;60.72
72798;BME280;61084;55.816;37.036;2023-02-18T10:05:12;98574.19;;;-2.54;60.12
72798;BME280;61084;55.816;37.036;2023-02-18T10:07:39;98575.03;;;-2.54;59.49
72798;BME280;61084;55.816;37.036;2023-02-18T10:10:38;98567.38;;;-2.55;59.48
72798;BME280;61084;55.816;37.036;2023-02-18T10:13:28;98566.41;;;-2.50;59.71
72798;BME280;61084;55.816;37.036;2023-02-18T10:15:52;98557.81;;;-2.47;59.34
72798;BME280;61084;55.816;37.036;2023-02-18T10:18:30;98550.81;;;-2.36;58.97
72798;BME280;61084;55.816;37.036;2023-02-18T10:21:06;98544.69;;;-2.29;59.77
72798;BME280;61084;55.816;37.036;2023-02-18T10:23:37;98553.09;;;-2.19;58.90
72798;BME280;61084;55.816;37.036;2023-02-18T10:26:06;98541.88;;;-2.14;59.41
72798;BME280;61084;55.816;37.036;2023-02-18T10:28:34;98550.38;;;-2.10;59.14
72798;BME280;61084;55.816;37.036;2023-02-18T10:31:04;98538.34;;;-2.07;58.78
72798;BME280;61084;55.816;37.036;2023-02-18T10:33:54;98538.19;;;-1.99;58.67
72798;BME280;61084;55.816;37.036;2023-02-18T10:36:34;98531.19;;;-1.91;58.56
72798;BME280;61084;55.816;37.036;2023-02-18T10:46:53;98516.84;;;-2.03;58.27
72798;BME280;61084;55.816;37.036;2023-02-18T10:52:18;98499.78;;;-2.07;58.44
72798;BME280;61084;55.816;37.036;2023-02-18T10:55:06;98486.94;;;-2.08;58.55
72798;BME280;61084;55.816;37.036;2023-02-18T10:57:34;98485.28;;;-2.11;59.01
72798;BME280;61084;55.816;37.036;2023-02-18T11:02:35;98497.16;;;-2.04;58.27
72798;BME280;61084;55.816;37.036;2023-02-18T11:05:15;98492.09;;;-2.07;57.85
72798;BME280;61084;55.816;37.036;2023-02-18T11:07:46;98482.66;;;-2.08;58.73
72798;BME280;61084;55.816;37.036;2023-02-18T11:10:22;98481.84;;;-2.10;58.69
72798;BME280;61084;55.816;37.036;2023-02-18T11:13:02;98483.50;;;-2.07;58.39
72798;BME280;61084;55.816;37.036;2023-02-18T11:15:29;98463.88;;;-2.13;59.03
72798;BME280;61084;55.816;37.036;2023-02-18T11:17:57;98470.91;;;-2.21;59.41
72798;BME280;61084;55.816;37.036;2023-02-18T11:20:28;98466.81;;;-2.33;59.06
72798;BME280;61084;55.816;37.036;2023-02-18T11:25:38;98450.59;;;-2.36;59.17
72798;BME280;61084;55.816;37.036;2023-02-18T11:30:41;98443.00;;;-2.42;58.57
72798;BME280;61084;55.816;37.036;2023-02-18T11:33:23;98443.94;;;-2.46;58.50
72798;BME280;61084;55.816;37.036;2023-02-18T11:35:56;98438.81;;;-2.46;58.84
72798;BME280;61084;55.816;37.036;2023-02-18T11:38:34;98437.28;;;-2.58;59.14
72798;BME280;61084;55.816;37.036;2023-02-18T11:41:07;98425.38;;;-2.62;58.95
72798;BME280;61084;55.816;37.036;2023-02-18T11:43:34;98427.22;;;-2.70;58.77
72798;BME280;61084;55.816;37.036;2023-02-18T11:46:25;98415.19;;;-2.68;58.61
72798;BME280;61084;55.816;37.036;2023-02-18T11:48:53;98416.88;;;-2.67;58.94
72798;BME280;61084;55.816;37.036;2023-02-18T11:51:23;98405.78;;;-2.69;59.08
72798;BME280;61084;55.816;37.036;2023-02-18T11:54:00;98405.75;;;-2.67;59.55
72798;BME280;61084;55.816;37.036;2023-02-18T11:56:55;98402.34;;;-2.68;59.34
72798;BME280;61084;55.816;37.036;2023-02-18T11:59:21;98399.72;;;-2.65;59.14
72798;BME280;61084;55.816;37.036;2023-02-18T12:02:02;98397.94;;;-2.60;59.08
72798;BME280;61084;55.816;37.036;2023-02-18T12:04:39;98394.53;;;-2.62;59.10
72798;BME280;61084;55.816;37.036;2023-02-18T12:09:48;98389.34;;;-2.57;59.33
72798;BME280;61084;55.816;37.036;2023-02-18T12:12:35;98381.44;;;-2.47;59.10
72798;BME280;61084;55.816;37.036;2023-02-18T12:15:02;98381.44;;;-2.47;59.29
72798;BME280;61084;55.816;37.036;2023-02-18T12:28:11;98382.28;;;-2.46;59.16
72798;BME280;61084;55.816;37.036;2023-02-18T12:36:50;98377.38;;;-2.60;59.44
72798;BME280;61084;55.816;37.036;2023-02-18T13:01:42;98344.53;;;-2.90;59.55
72798;BME280;61084;55.816;37.036;2023-02-18T13:07:44;98347.09;;;-2.90;59.47
72798;BME280;61084;55.816;37.036;2023-02-18T13:13:10;98332.81;;;-3.04;58.76
72798;BME280;61084;55.816;37.036;2023-02-18T13:15:45;98336.22;;;-3.06;59.33
72798;BME280;61084;55.816;37.036;2023-02-18T13:18:19;98331.88;;;-3.02;59.37
72798;BME280;61084;55.816;37.036;2023-02-18T13:20:59;98335.19;;;-2.95;59.33
72798;BME280;61084;55.816;37.036;2023-02-18T13:23:31;98322.31;;;-2.92;59.34
72798;BME280;61084;55.816;37.036;2023-02-18T13:26:01;98319.69;;;-2.88;59.46
72798;BME280;61084;55.816;37.036;2023-02-18T13:34:51;98318.91;;;-2.93;59.10
72798;BME280;61084;55.816;37.036;2023-02-18T13:40:16;98308.75;;;-2.99;59.33
72798;BME280;61084;55.816;37.036;2023-02-18T13:42:43;98314.78;;;-3.01;59.72
72798;BME280;61084;55.816;37.036;2023-02-18T13:45:41;98301.25;;;-3.10;59.45
72798;BME280;61084;55.816;37.036;2023-02-18T13:48:26;98306.44;;;-3.14;59.53
72798;BME280;61084;55.816;37.036;2023-02-18T13:50:53;98300.53;;;-3.19;59.93
72798;BME280;61084;55.816;37.036;2023-02-18T13:53:28;98288.59;;;-3.20;59.83
72798;BME280;61084;55.816;37.036;2023-02-18T13:55:59;98301.34;;;-3.16;59.87
72798;BME280;61084;55.816;37.036;2023-02-18T13:58:33;98290.19;;;-3.15;59.81
72798;BME280;61084;55.816;37.036;2023-02-18T14:03:49;98281.72;;;-3.20;59.77
72798;BME280;61084;55.816;37.036;2023-02-18T14:09:00;98290.38;;;-3.25;59.96
72798;BME280;61084;55.816;37.036;2023-02-18T14:11:39;98288.72;;;-3.29;60.11
72798;BME280;61084;55.816;37.036;2023-02-18T14:14:32;98284.50;;;-3.32;59.86
72798;BME280;61084;55.816;37.036;2023-02-18T14:25:02;98269.22;;;-3.38;60.19
72798;BME280;61084;55.816;37.036;2023-02-18T14:27:28;98268.47;;;-3.44;60.28
72798;BME280;61084;55.816;37.036;2023-02-18T14:30:04;98258.25;;;-3.47;60.20
72798;BME280;61084;55.816;37.036;2023-02-18T14:32:31;98259.97;;;-3.49;60.43
72798;BME280;61084;55.816;37.036;2023-02-18T14:35:19;98257.56;;;-3.57;60.47
72798;BME280;61084;55.816;37.036;2023-02-18T14:38:10;98250.72;;;-3.58;60.52
72798;BME280;61084;55.816;37.036;2023-02-18T14:51:09;98239.81;;;-3.70;60.75
72798;BME280;61084;55.816;37.036;2023-02-18T14:53:42;98241.50;;;-3.68;60.78
72798;BME280;61084;55.816;37.036;2023-02-18T14:56:13;98238.88;;;-3.66;60.94
72798;BME280;61084;55.816;37.036;2023-02-18T14:58:44;98235.53;;;-3.70;60.74
72798;BME280;61084;55.816;37.036;2023-02-18T15:03:49;98228.59;;;-3.63;61.08
72798;BME280;61084;55.816;37.036;2023-02-18T15:08:54;98226.78;;;-3.58;61.41
72798;BME280;61084;55.816;37.036;2023-02-18T15:11:29;98214.03;;;-3.61;61.04
72798;BME280;61084;55.816;37.036;2023-02-18T15:13:59;98213.16;;;-3.59;61.24
72798;BME280;61084;55.816;37.036;2023-02-18T15:16:32;98208.03;;;-3.60;60.82